Etusivu
METAR-TAF:

METAR-TAF

Lentoasemat :

Rønne, Tanska

Leveyspiiri: 55-04N, Pituuspiiri: 014-45E, korkeus merenpinnasta: 16 m

Tämänhetkinen sää

Tämä raportti tehtiin 27 minuuttia sitten, kello 11.20 UTC
Tuuli 7 kn lännestä
Lämpötila 17°C
Kosteus 72%
Ilmanpaine 1015 hPa
Näkyvyys 10 km tai enemmän

METAR: EKRN 181120Z AUTO 26007KT 9999 NCD 17/12 Q1015

Aika: 13:47 (11:47 UTC)

Sääennuste

Tämä raportti tehtiin 45 minuuttia sitten, kello 11.02 UTC
Ennuste voimassa 18. päivästä klo 12 UTC - 18. päivään klo 21 UTC
Tuuli 6 kn lännestä
Näkyvyys 10 km tai enemmän
Muutamia pilviä 4000 ft:n korkeudessa
Hajonneita pilviä 20000 ft:n korkeudessa

TAF: EKRN 181102Z 1812/1821 27006KT 9999 FEW040 BKN200

Säähavainnot ja -ennusteet yli 4000 lentoasemalta (METAR- ja TAF-raportit).

Käytössä olevat sääasemat on merkitty karttaan keltaisilla ja punaisilla pisteillä.

Aseta hiiri pisteen päälle nähdäksesi sääaseman nimen.

Klikkaa sitten nähdäksesi säähavainnot ja -ennusteet.

Kartan vaihtaminen: klikkaa mustalla rastilla varustettuja vihreitä pisteitä, niin voit zoomata sisään; viivalla varustettua vihreää pistettä, niin voit zoomata ulos tai vihreitä nuolia, niin pääset viereisille kartoille.


METAR-TAF: